createdAt,value
2018-06-04T00:01:38.035Z,83.42
2018-06-04T00:03:39.602Z,83.52
2018-06-04T00:05:41.420Z,83.52
2018-06-04T00:07:42.979Z,83.42
2018-06-04T00:09:44.483Z,83.48
2018-06-04T00:11:46.016Z,83.52
2018-06-04T00:13:47.525Z,83.19
2018-06-04T00:15:49.423Z,84.06
2018-06-04T00:17:51.018Z,83.67
2018-06-04T00:19:52.516Z,83.86
2018-06-04T00:21:54.275Z,83.58
2018-06-04T00:23:55.827Z,83.67
2018-06-04T00:25:57.355Z,83.77
2018-06-04T00:27:59.274Z,84.06
2018-06-04T00:30:00.978Z,84.25
2018-06-04T00:32:02.460Z,84.16
2018-06-04T00:34:05.300Z,84.63
2018-06-04T00:36:46.952Z,83.77
2018-06-04T00:38:48.376Z,83.67
2018-06-04T00:40:49.798Z,83.48
2018-06-04T00:42:51.304Z,83.67
2018-06-04T00:44:52.719Z,83.39
2018-06-04T00:47:35.279Z,83.58
2018-06-04T00:49:36.693Z,83.19
2018-06-04T00:51:38.116Z,83.67
2018-06-04T00:53:39.546Z,82.96
2018-06-04T00:56:22.109Z,83.73
2018-06-04T00:58:23.525Z,83.15
2018-06-04T01:00:24.947Z,83.53
2018-06-04T01:02:26.556Z,83.92
2018-06-04T01:04:27.956Z,83.83
2018-06-04T01:07:10.647Z,83.63
2018-06-04T01:09:12.063Z,84.11
2018-06-04T01:11:13.648Z,83.92
2018-06-04T01:13:15.077Z,83.83
2018-06-04T01:15:16.491Z,83.15
2018-06-04T01:17:58.914Z,83.92
2018-06-04T01:20:00.362Z,84.59
2018-06-04T01:22:01.784Z,84.78
2018-06-04T01:24:03.215Z,85.27
2018-06-04T01:26:44.717Z,85.17
2018-06-04T01:28:46.504Z,85.27
2018-06-04T01:30:47.932Z,84.69
2018-06-04T01:32:49.713Z,84.69
2018-06-04T01:34:51.178Z,84.26
2018-06-04T01:37:33.894Z,84.40
2018-06-04T01:39:35.318Z,84.59
2018-06-04T01:41:36.739Z,85.17
2018-06-04T01:43:38.335Z,84.36
2018-06-04T01:45:39.817Z,85.27
2018-06-04T01:47:41.240Z,84.98
2018-06-04T01:49:42.675Z,85.22
2018-06-04T01:51:44.124Z,85.13
2018-06-04T01:53:45.880Z,85.32
2018-06-04T01:55:47.667Z,85.03
2018-06-04T01:57:49.109Z,85.13
2018-06-04T01:59:50.545Z,85.13
2018-06-04T02:01:52.004Z,84.45
2018-06-04T02:03:53.536Z,84.36
2018-06-04T02:05:55.002Z,84.74
2018-06-04T02:07:56.465Z,84.36
2018-06-04T02:09:57.906Z,84.55
2018-06-04T02:11:59.438Z,84.55
2018-06-04T02:14:00.866Z,84.74
2018-06-04T02:16:02.357Z,83.87
2018-06-04T02:18:03.867Z,83.69
2018-06-04T02:20:05.380Z,84.36
2018-06-04T02:22:06.855Z,84.26
2018-06-04T02:24:08.399Z,84.36
2018-06-04T02:26:09.900Z,83.78
2018-06-04T02:28:11.395Z,84.07
2018-06-04T02:30:12.905Z,83.78
2018-06-04T02:32:14.439Z,83.78
2018-06-04T02:34:15.949Z,84.07
2018-06-04T02:36:17.748Z,84.17
2018-06-04T02:38:19.529Z,83.97
2018-06-04T02:40:21.234Z,84.07
2018-06-04T02:42:22.710Z,84.07
2018-06-04T02:44:24.197Z,83.49
2018-06-04T02:46:25.706Z,84.07
2018-06-04T02:48:27.208Z,84.07
2018-06-04T02:50:28.718Z,84.26
2018-06-04T02:52:30.283Z,84.26
2018-06-04T02:54:31.808Z,84.80
2018-06-04T02:56:33.648Z,84.60
2018-06-04T02:58:35.285Z,83.87
2018-06-04T03:00:36.793Z,84.22
2018-06-04T03:02:38.353Z,83.93
2018-06-04T03:04:40.205Z,84.22
2018-06-04T03:06:41.773Z,83.84
2018-06-04T03:08:43.286Z,84.51
2018-06-04T03:11:25.725Z,84.80
2018-06-04T03:13:27.149Z,84.51
2018-06-04T03:15:28.586Z,84.70
2018-06-04T03:18:11.077Z,84.41
2018-06-04T03:20:12.503Z,84.51
2018-06-04T03:22:13.969Z,84.99
2018-06-04T03:24:15.437Z,85.75
2018-06-04T03:26:58.069Z,85.75
2018-06-04T03:28:59.529Z,85.57
2018-06-04T03:31:42.241Z,87.39
2018-06-04T03:33:44.074Z,88.25
2018-06-04T03:35:45.569Z,87.96
2018-06-04T03:38:27.068Z,87.87
2018-06-04T03:40:28.947Z,87.96
2018-06-04T03:42:30.376Z,88.64
2018-06-04T03:44:31.949Z,87.87
2018-06-04T03:47:14.353Z,88.45
2018-06-04T03:49:15.784Z,88.25
2018-06-04T03:51:17.505Z,88.25
2018-06-04T03:53:18.856Z,88.54
2018-06-04T03:55:20.273Z,88.83
2018-06-04T03:58:03.019Z,88.83
2018-06-04T04:00:04.427Z,89.36
2018-06-04T04:02:06.011Z,89.64
2018-06-04T04:04:07.457Z,90.22
2018-06-04T04:06:08.858Z,89.83
2018-06-04T04:08:10.280Z,89.98
2018-06-04T04:10:11.967Z,90.12
2018-06-04T04:12:13.394Z,90.03
2018-06-04T04:14:14.851Z,90.41
2018-06-04T04:16:58.066Z,91.47
2018-06-04T04:19:00.317Z,91.18
2018-06-04T04:21:01.845Z,91.28
2018-06-04T04:23:03.534Z,91.28
2018-06-04T04:25:05.028Z,91.85
2018-06-04T04:27:06.564Z,91.85
2018-06-04T04:29:08.081Z,91.08
2018-06-04T04:31:09.613Z,91.95
2018-06-04T04:33:11.369Z,91.75
2018-06-04T04:35:13.126Z,91.75
2018-06-04T04:37:54.759Z,92.91
2018-06-04T04:39:56.197Z,92.81
2018-06-04T04:41:57.705Z,92.52
2018-06-04T04:43:59.168Z,93.01
2018-06-04T04:46:00.570Z,92.72
2018-06-04T04:48:02.016Z,92.91
2018-06-04T04:50:03.673Z,93.44
2018-06-04T04:52:05.196Z,93.15
2018-06-04T04:54:06.631Z,93.91
2018-06-04T04:56:08.152Z,93.73
2018-06-04T04:58:09.615Z,93.34
2018-06-04T05:00:11.064Z,92.91
2018-06-04T05:02:12.656Z,93.19
2018-06-04T05:04:14.105Z,93.49
2018-06-04T05:06:15.542Z,93.44
2018-06-04T05:08:17.047Z,93.91
2018-06-04T05:10:18.488Z,93.77
2018-06-04T05:12:19.967Z,93.82
2018-06-04T05:14:21.858Z,93.68
2018-06-04T05:16:23.575Z,93.49
2018-06-04T05:18:25.356Z,92.81
2018-06-04T05:20:26.898Z,93.68
2018-06-04T05:22:28.419Z,94.16
2018-06-04T05:24:30.159Z,94.73
2018-06-04T05:26:31.783Z,94.64
2018-06-04T05:28:33.249Z,95.12
2018-06-04T05:30:34.750Z,95.40
2018-06-04T05:32:36.644Z,95.65
2018-06-04T05:34:38.395Z,94.93
2018-06-04T05:36:40.149Z,95.31
2018-06-04T05:38:41.916Z,96.56
2018-06-04T05:40:43.680Z,96.32
2018-06-04T05:42:45.455Z,95.75
2018-06-04T05:44:47.274Z,95.65
2018-06-04T05:46:49.033Z,95.45
2018-06-04T05:48:50.576Z,95.55
2018-06-04T05:50:52.261Z,95.75
2018-06-04T05:52:54.003Z,94.88
2018-06-04T05:54:55.420Z,94.68
2018-06-04T05:56:56.883Z,95.26
2018-06-04T05:58:58.385Z,95.45
2018-06-04T06:00:59.943Z,95.07
2018-06-04T06:03:01.502Z,94.98
2018-06-04T06:05:03.040Z,93.91
2018-06-04T06:07:04.561Z,93.91
2018-06-04T06:09:06.139Z,93.73
2018-06-04T06:11:07.987Z,93.91
2018-06-04T06:13:09.693Z,94.21
2018-06-04T06:15:11.286Z,94.78
2018-06-04T06:17:12.762Z,94.98
2018-06-04T06:19:14.317Z,94.78
2018-06-04T06:21:15.860Z,94.11
2018-06-04T06:23:17.658Z,94.15
2018-06-04T06:25:19.381Z,94.54
2018-06-04T06:27:21.191Z,94.73
2018-06-04T06:29:22.879Z,95.02
2018-06-04T06:31:24.420Z,93.96
2018-06-04T06:33:25.992Z,93.29
2018-06-04T06:35:27.542Z,92.71
2018-06-04T06:38:09.977Z,93.29
2018-06-04T06:40:11.406Z,92.91
2018-06-04T06:42:12.827Z,93.00
2018-06-04T06:44:14.259Z,92.91
2018-06-04T06:46:15.692Z,93.10
2018-06-04T06:48:59.089Z,92.91
2018-06-04T06:51:01.136Z,93.29
2018-06-04T06:53:02.553Z,92.71
2018-06-04T06:55:03.975Z,92.91
2018-06-04T06:57:46.612Z,92.91
2018-06-04T06:59:48.044Z,93.29
2018-06-04T07:01:49.469Z,93.77
2018-06-04T07:03:50.947Z,94.45
2018-06-04T07:05:52.624Z,94.01
2018-06-04T07:08:34.056Z,94.01
2018-06-04T07:10:36.045Z,93.82
2018-06-04T07:12:37.476Z,93.05
2018-06-04T07:14:39.106Z,93.82
2018-06-04T07:17:21.718Z,93.24
2018-06-04T07:19:23.866Z,93.24
2018-06-04T07:21:25.308Z,92.95
2018-06-04T07:23:26.721Z,93.15
2018-06-04T07:25:28.150Z,93.38
2018-06-04T07:27:29.650Z,94.06
2018-06-04T07:29:31.090Z,93.29
2018-06-04T07:31:32.577Z,94.06
2018-06-04T07:33:34.420Z,93.19
2018-06-04T07:35:36.155Z,92.52
2018-06-04T07:38:19.446Z,91.94
2018-06-04T07:40:21.454Z,91.75
2018-06-04T07:42:22.893Z,91.55
2018-06-04T07:44:24.319Z,92.03
2018-06-04T07:46:25.863Z,91.94
2018-06-04T07:48:27.322Z,91.79
2018-06-04T07:50:28.812Z,91.17
2018-06-04T07:52:30.566Z,91.12
2018-06-04T07:54:32.062Z,91.41
2018-06-04T07:56:33.645Z,92.27
2018-06-04T07:58:35.339Z,91.21
2018-06-04T08:00:37.100Z,91.02
2018-06-04T08:02:38.534Z,90.73
2018-06-04T08:04:40.059Z,90.34
2018-06-04T08:06:41.597Z,90.44
2018-06-04T08:08:43.139Z,90.54
2018-06-04T08:10:44.885Z,89.86
2018-06-04T08:12:46.667Z,90.34
2018-06-04T08:14:48.458Z,90.54
2018-06-04T08:16:50.034Z,89.62
2018-06-04T08:18:51.776Z,89.53
2018-06-04T08:20:53.306Z,88.23
2018-06-04T08:22:55.185Z,88.90
2018-06-04T08:24:56.999Z,88.95
2018-06-04T08:26:58.749Z,89.04
2018-06-04T08:29:00.257Z,88.85
2018-06-04T08:31:01.812Z,88.65
2018-06-04T08:33:03.323Z,89.53
2018-06-04T08:35:05.196Z,89.62
2018-06-04T08:37:06.677Z,89.04
2018-06-04T08:39:08.177Z,88.85
2018-06-04T08:41:09.699Z,88.65
2018-06-04T08:43:11.216Z,88.85
2018-06-04T08:45:12.687Z,88.27
2018-06-04T08:47:14.122Z,88.75
2018-06-04T08:49:15.553Z,89.67
2018-06-04T08:51:17.105Z,89.47
2018-06-04T08:53:18.726Z,89.18
2018-06-04T08:55:20.533Z,88.41
2018-06-04T08:58:03.383Z,87.26
2018-06-04T09:00:04.800Z,87.64
2018-06-04T09:02:06.529Z,87.54
2018-06-04T09:04:08.041Z,87.45
2018-06-04T09:06:09.491Z,87.83
2018-06-04T09:08:52.139Z,87.54
2018-06-04T09:10:53.875Z,86.87
2018-06-04T09:12:55.796Z,85.71
2018-06-04T09:14:57.225Z,86.39
2018-06-04T09:16:58.668Z,86.77
2018-06-04T09:19:00.138Z,85.23
2018-06-04T09:21:01.655Z,85.52
2018-06-04T09:23:03.473Z,86.00
2018-06-04T09:25:05.303Z,85.85
2018-06-04T09:27:06.526Z,86.82
2018-06-04T09:29:07.947Z,86.82
2018-06-04T09:31:09.394Z,86.39
2018-06-04T09:33:10.869Z,86.10
2018-06-04T09:35:12.702Z,86.68
2018-06-04T09:37:14.540Z,87.49
2018-06-04T09:39:16.053Z,86.72
2018-06-04T09:41:17.578Z,86.91
2018-06-04T09:43:19.095Z,86.72
2018-06-04T09:45:20.905Z,85.56
2018-06-04T09:48:03.323Z,84.79
2018-06-04T09:50:04.922Z,85.08
2018-06-04T09:52:06.419Z,85.08
2018-06-04T09:54:07.893Z,85.75
2018-06-04T09:56:09.331Z,85.75
2018-06-04T09:58:51.994Z,85.89
2018-06-04T10:00:53.764Z,84.54
2018-06-04T10:02:55.198Z,82.42
2018-06-04T10:04:56.653Z,80.78
2018-06-04T10:06:58.141Z,81.55
2018-06-04T10:09:40.571Z,80.78
2018-06-04T10:11:42.002Z,80.39
2018-06-04T10:13:43.431Z,81.84
2018-06-04T10:15:44.862Z,81.74
2018-06-04T10:18:27.304Z,82.61
2018-06-04T10:20:28.735Z,83.39
2018-06-04T10:22:30.363Z,83.77
2018-06-04T10:24:32.407Z,83.77
2018-06-04T10:26:34.054Z,83.58
2018-06-04T10:28:35.512Z,82.84
2018-06-04T10:30:36.978Z,83.09
2018-06-04T10:32:38.530Z,83.52
2018-06-04T10:34:40.021Z,83.04
2018-06-04T10:36:41.822Z,81.88
2018-06-04T10:39:23.960Z,82.46
2018-06-04T10:41:25.436Z,82.60
2018-06-04T10:43:27.265Z,81.73
2018-06-04T10:45:28.701Z,81.63
2018-06-04T10:47:30.260Z,81.34
2018-06-04T10:49:31.753Z,80.86
2018-06-04T10:51:33.440Z,80.76
2018-06-04T10:53:35.044Z,80.08
2018-06-04T10:55:36.587Z,79.31
2018-06-04T10:57:38.130Z,79.80
2018-06-04T10:59:39.531Z,80.08
2018-06-04T11:01:41.062Z,79.70
2018-06-04T11:03:42.605Z,79.70
2018-06-04T11:05:44.523Z,79.35
2018-06-04T11:07:46.060Z,78.34
2018-06-04T11:09:47.595Z,78.29
2018-06-04T11:11:49.178Z,78.67
2018-06-04T11:13:50.656Z,79.06
2018-06-04T11:15:52.225Z,78.96
2018-06-04T11:17:53.758Z,78.09
2018-06-04T11:19:55.343Z,78.96
2018-06-04T11:21:57.137Z,78.33
2018-06-04T11:23:58.979Z,78.23
2018-06-04T11:26:00.587Z,78.13
2018-06-04T11:28:02.075Z,77.45
2018-06-04T11:30:03.611Z,77.55
2018-06-04T11:32:05.429Z,75.65
2018-06-04T11:34:06.922Z,74.82
2018-06-04T11:36:08.460Z,73.95
2018-06-04T11:38:10.285Z,73.69
2018-06-04T11:40:11.911Z,74.96
2018-06-04T11:42:13.531Z,71.89
2018-06-04T11:44:15.311Z,69.63
2018-06-04T11:46:16.870Z,68.53
2018-06-04T11:48:59.308Z,70.95
2018-06-04T11:51:00.789Z,71.04
2018-06-04T11:53:02.228Z,70.31
2018-06-04T11:55:04.296Z,68.56
2018-06-04T11:57:05.727Z,69.43
2018-06-04T11:59:07.211Z,69.24
2018-06-04T12:01:08.848Z,70.98
2018-06-04T12:03:10.369Z,69.73
2018-06-04T12:05:11.923Z,68.91
2018-06-04T12:07:13.379Z,69.34
2018-06-04T12:09:14.908Z,69.63
2018-06-04T12:11:16.427Z,68.85
2018-06-04T12:13:18.240Z,68.05
2018-06-04T12:15:19.758Z,69.43
2018-06-04T12:18:03.019Z,70.21
2018-06-04T12:20:04.513Z,69.82
2018-06-04T12:22:06.374Z,69.63
2018-06-04T12:24:07.809Z,68.47
2018-06-04T12:26:09.269Z,68.99
2018-06-04T12:28:51.945Z,68.30
2018-06-04T12:30:53.400Z,69.67
2018-06-04T12:32:54.815Z,70.34
2018-06-04T12:34:56.577Z,70.31
2018-06-04T12:37:39.253Z,69.73
2018-06-04T12:39:40.682Z,68.85
2018-06-04T12:41:42.862Z,69.15
2018-06-04T12:43:44.608Z,69.34
2018-06-04T12:45:46.109Z,70.31
2018-06-04T12:47:47.575Z,70.79
2018-06-04T12:49:49.077Z,69.24
2018-06-04T12:51:50.546Z,68.60
2018-06-04T12:53:52.174Z,67.44
2018-06-04T12:55:53.868Z,68.44
2018-06-04T12:57:55.305Z,67.76
2018-06-04T12:59:56.824Z,67.66
2018-06-04T13:01:58.356Z,68.18
2018-06-04T13:04:00.216Z,64.56
2018-06-04T13:06:01.762Z,65.95
2018-06-04T13:08:03.376Z,64.69
2018-06-04T13:10:04.853Z,65.17
2018-06-04T13:12:06.608Z,65.05
2018-06-04T13:14:08.151Z,66.11
2018-06-04T13:16:09.652Z,66.20
2018-06-04T13:18:11.489Z,67.08
2018-06-04T13:20:13.256Z,66.08
2018-06-04T13:22:14.799Z,65.98
2018-06-04T13:24:16.306Z,67.27
2018-06-04T13:26:17.851Z,63.59
2018-06-04T13:28:19.548Z,61.68
2018-06-04T13:30:21.073Z,61.17
2018-06-04T13:32:22.745Z,61.58
2018-06-04T13:34:24.644Z,62.36
2018-06-04T13:36:26.157Z,61.29
2018-06-04T13:38:27.665Z,62.65
2018-06-04T13:40:29.200Z,63.33
2018-06-04T13:42:30.774Z,62.33
2018-06-04T13:44:32.562Z,63.40
2018-06-04T13:46:34.433Z,63.10
2018-06-04T13:48:36.208Z,62.04
2018-06-04T13:50:37.741Z,62.26
2018-06-04T13:52:39.321Z,61.49
2018-06-04T13:54:40.841Z,62.19
2018-06-04T13:56:42.499Z,63.65
2018-06-04T13:58:44.113Z,61.35
2018-06-04T14:00:45.658Z,61.25
2018-06-04T14:02:47.164Z,59.80
2018-06-04T14:04:48.907Z,59.25
2018-06-04T14:06:50.797Z,59.74
2018-06-04T14:08:52.441Z,60.31
2018-06-04T14:10:54.164Z,59.38
2018-06-04T14:12:55.939Z,58.01
2018-06-04T14:14:57.780Z,57.62
2018-06-04T14:17:40.239Z,58.01
2018-06-04T14:19:41.733Z,55.51
2018-06-04T14:21:43.174Z,57.56
2018-06-04T14:23:44.609Z,56.26
2018-06-04T14:25:46.278Z,57.36
2018-06-04T14:28:28.851Z,56.59
2018-06-04T14:30:30.288Z,56.10
2018-06-04T14:32:31.727Z,57.07
2018-06-04T14:34:33.175Z,56.36
2018-06-04T14:36:34.672Z,58.86
2018-06-04T14:38:36.350Z,56.60
2018-06-04T14:40:37.970Z,58.15
2018-06-04T14:42:39.565Z,59.09
2018-06-04T14:44:41.088Z,60.06
2018-06-04T14:46:42.938Z,61.49
2018-06-04T14:48:44.762Z,62.55
2018-06-04T14:50:46.722Z,61.39
2018-06-04T14:52:48.303Z,60.61
2018-06-04T14:54:50.472Z,61.58
2018-06-04T14:56:52.020Z,62.19
2018-06-04T14:59:36.727Z,62.01
2018-06-04T15:01:38.163Z,59.00
2018-06-04T15:03:39.599Z,58.70
2018-06-04T15:05:41.111Z,59.28
2018-06-04T15:08:24.365Z,61.25
2018-06-04T15:10:26.228Z,60.00
2018-06-04T15:12:27.775Z,60.28
2018-06-04T15:14:30.025Z,59.51
2018-06-04T15:16:31.723Z,59.22
2018-06-04T15:18:33.546Z,60.48
2018-06-04T15:20:35.787Z,60.00
2018-06-04T15:22:37.559Z,59.70
2018-06-04T15:24:39.239Z,60.97
2018-06-04T15:26:41.048Z,59.90
2018-06-04T15:28:42.598Z,61.35
2018-06-04T15:30:44.256Z,60.87
2018-06-04T15:32:45.779Z,59.90
2018-06-04T15:34:47.333Z,60.09
2018-06-04T15:36:48.876Z,61.25
2018-06-04T15:38:50.397Z,59.70
2018-06-04T15:40:52.140Z,60.28
2018-06-04T15:42:53.683Z,60.58
2018-06-04T15:44:55.299Z,60.38
2018-06-04T15:46:56.907Z,60.48
2018-06-04T15:48:58.757Z,60.55
2018-06-04T15:51:00.237Z,60.84
2018-06-04T15:53:01.786Z,61.29
2018-06-04T15:55:03.641Z,63.23
2018-06-04T15:57:05.215Z,63.04
2018-06-04T15:59:06.953Z,61.94
2018-06-04T16:01:08.471Z,63.10
2018-06-04T16:03:10.108Z,61.75
2018-06-04T16:05:11.592Z,62.72
2018-06-04T16:07:13.201Z,62.52
2018-06-04T16:09:14.747Z,63.37
2018-06-04T16:11:16.236Z,63.65
2018-06-04T16:13:17.834Z,63.75
2018-06-04T16:15:19.578Z,63.27
2018-06-04T16:17:21.228Z,63.65
2018-06-04T16:19:22.822Z,64.14
2018-06-04T16:21:24.741Z,64.53
2018-06-04T16:23:26.257Z,63.65
2018-06-04T16:25:28.173Z,63.95
2018-06-04T16:27:30.002Z,63.27
2018-06-04T16:29:31.554Z,63.65
2018-06-04T16:31:33.117Z,64.04
2018-06-04T16:33:34.646Z,63.78
2018-06-04T16:35:36.167Z,63.49
2018-06-04T16:37:37.862Z,64.65
2018-06-04T16:39:39.441Z,63.49
2018-06-04T16:41:41.513Z,63.17
2018-06-04T16:43:43.318Z,64.17
2018-06-04T16:45:44.852Z,64.04
2018-06-04T16:47:46.487Z,63.56
2018-06-04T16:49:48.038Z,63.95
2018-06-04T16:51:49.585Z,64.24
2018-06-04T16:53:51.316Z,64.20
2018-06-04T16:55:52.860Z,64.69
2018-06-04T16:57:54.547Z,65.95
2018-06-04T16:59:56.348Z,65.37
2018-06-04T17:01:58.198Z,65.05
2018-06-04T17:03:59.711Z,65.53
2018-06-04T17:06:01.247Z,66.50
2018-06-04T17:08:43.888Z,67.56
2018-06-04T17:10:45.763Z,67.46
2018-06-04T17:12:47.214Z,66.50
2018-06-04T17:14:48.657Z,65.34
2018-06-04T17:16:50.097Z,65.24
2018-06-04T17:19:32.807Z,66.40
2018-06-04T17:21:34.231Z,66.60
2018-06-04T17:23:35.773Z,65.79
2018-06-04T17:25:37.200Z,66.75
2018-06-04T17:28:19.625Z,66.82
2018-06-04T17:30:21.240Z,66.43
2018-06-04T17:32:22.910Z,66.82
2018-06-04T17:34:24.340Z,66.82
2018-06-04T17:36:25.801Z,67.59
2018-06-04T17:39:08.214Z,67.59
2018-06-04T17:41:09.768Z,67.69
2018-06-04T17:43:11.254Z,67.98
2018-06-04T17:45:13.275Z,68.27
2018-06-04T17:47:14.703Z,68.56
2018-06-04T17:49:56.178Z,68.75
2018-06-04T17:51:57.718Z,67.49
2018-06-04T17:53:59.435Z,67.66
2018-06-04T17:56:00.818Z,67.66
2018-06-04T17:58:43.430Z,68.33
2018-06-04T18:00:44.860Z,68.14
2018-06-04T18:02:46.292Z,68.10
2018-06-04T18:04:47.757Z,68.88
2018-06-04T18:06:49.237Z,68.40
2018-06-04T18:09:31.913Z,68.59
2018-06-04T18:11:33.390Z,68.10
2018-06-04T18:13:34.878Z,68.20
2018-06-04T18:15:36.311Z,68.78
2018-06-04T18:17:37.794Z,68.68
2018-06-04T18:19:39.358Z,68.30
2018-06-04T18:21:40.913Z,68.78
2018-06-04T18:23:42.358Z,69.56
2018-06-04T18:25:44.236Z,69.36
2018-06-04T18:27:46.117Z,68.98
2018-06-04T18:29:47.696Z,68.75
2018-06-04T18:31:49.242Z,69.13
2018-06-04T18:33:50.767Z,68.46
2018-06-04T18:35:52.439Z,68.94
2018-06-04T18:37:54.263Z,68.84
2018-06-04T18:39:56.072Z,69.52
2018-06-04T18:41:57.849Z,69.13
2018-06-04T18:43:59.617Z,69.90
2018-06-04T18:46:01.155Z,69.32
2018-06-04T18:48:02.957Z,69.10
2018-06-04T18:50:04.532Z,69.49
2018-06-04T18:52:06.123Z,69.49
2018-06-04T18:54:07.617Z,70.64
2018-06-04T18:56:09.166Z,70.84
2018-06-04T18:58:10.745Z,71.12
2018-06-04T19:00:12.305Z,70.94
2018-06-04T19:02:14.120Z,70.94
2018-06-04T19:04:15.854Z,70.84
2018-06-04T19:06:17.386Z,71.12
2018-06-04T19:08:19.010Z,70.45
2018-06-04T19:10:20.506Z,71.32
2018-06-04T19:12:22.080Z,71.61
2018-06-04T19:14:23.661Z,71.03
2018-06-04T19:16:25.206Z,71.51
2018-06-04T19:18:26.745Z,71.12
2018-06-04T19:20:28.373Z,71.32
2018-06-04T19:22:30.034Z,71.28
2018-06-04T19:24:31.929Z,71.38
2018-06-04T19:26:33.459Z,71.58
2018-06-04T19:28:35.254Z,71.28
2018-06-04T19:30:36.846Z,71.19
2018-06-04T19:32:38.603Z,71.67
2018-06-04T19:34:40.389Z,71.77
2018-06-04T19:36:41.888Z,71.58
2018-06-04T19:39:24.413Z,72.15
2018-06-04T19:41:25.831Z,71.28
2018-06-04T19:43:27.328Z,71.38
2018-06-04T19:45:28.750Z,71.67
2018-06-04T19:47:30.580Z,71.58
2018-06-04T19:50:13.389Z,71.77
2018-06-04T19:52:15.442Z,71.34
2018-06-04T19:54:16.832Z,71.44
2018-06-04T19:56:18.296Z,71.64
2018-06-04T19:59:00.733Z,72.60
2018-06-04T20:01:02.594Z,72.79
2018-06-04T20:03:03.934Z,72.60
2018-06-04T20:05:05.360Z,72.41
2018-06-04T20:07:07.059Z,72.41
2018-06-04T20:09:48.517Z,72.02
2018-06-04T20:11:50.171Z,72.02
2018-06-04T20:13:52.608Z,72.79
2018-06-04T20:15:54.192Z,72.41
2018-06-04T20:17:55.934Z,73.05
2018-06-04T20:19:57.755Z,72.79
2018-06-04T20:21:59.268Z,72.27
2018-06-04T20:24:01.078Z,72.95
2018-06-04T20:26:02.653Z,73.43
2018-06-04T20:28:04.243Z,72.75
2018-06-04T20:30:50.432Z,72.75
2018-06-04T20:32:52.799Z,73.33
2018-06-04T20:34:54.493Z,73.43
2018-06-04T20:36:56.347Z,73.72
2018-06-04T20:38:58.084Z,73.14
2018-06-04T20:40:59.510Z,73.37
2018-06-04T20:43:01.039Z,72.56
2018-06-04T20:45:02.893Z,73.33
2018-06-04T20:47:04.678Z,74.20
2018-06-04T20:49:06.365Z,73.14
2018-06-04T20:51:07.954Z,73.53
2018-06-04T20:53:09.451Z,73.82
2018-06-04T20:55:11.232Z,73.24
2018-06-04T20:57:13.122Z,73.53
2018-06-04T20:59:14.980Z,73.43
2018-06-04T21:01:16.791Z,73.14
2018-06-04T21:03:18.593Z,74.36
2018-06-04T21:05:20.137Z,73.58
2018-06-04T21:07:21.664Z,74.16
2018-06-04T21:09:23.224Z,73.58
2018-06-04T21:11:24.777Z,73.62
2018-06-04T21:13:26.286Z,74.20
2018-06-04T21:15:27.804Z,73.30
2018-06-04T21:17:29.297Z,74.26
2018-06-04T21:19:31.200Z,73.72
2018-06-04T21:21:32.762Z,73.88
2018-06-04T21:23:34.284Z,73.10
2018-06-04T21:25:36.095Z,73.91
2018-06-04T21:27:37.892Z,73.97
2018-06-04T21:29:39.738Z,74.10
2018-06-04T21:31:41.459Z,74.36
2018-06-04T21:33:43.015Z,74.55
2018-06-04T21:35:44.533Z,75.13
2018-06-04T21:37:46.038Z,75.32
2018-06-04T21:39:47.551Z,75.23
2018-06-04T21:41:49.075Z,75.51
2018-06-04T21:43:50.595Z,75.71
2018-06-04T21:45:52.858Z,76.28
2018-06-04T21:47:54.390Z,76.09
2018-06-04T21:49:55.941Z,75.32
2018-06-04T21:51:57.737Z,75.32
2018-06-04T21:53:59.268Z,75.36
2018-06-04T21:56:00.848Z,75.07
2018-06-04T21:58:02.538Z,74.78
2018-06-04T22:00:45.268Z,75.26
2018-06-04T22:02:46.690Z,75.90
2018-06-04T22:04:48.117Z,76.18
2018-06-04T22:06:49.548Z,76.38
2018-06-04T22:09:31.376Z,76.28
2018-06-04T22:11:33.506Z,76.32
2018-06-04T22:13:35.155Z,76.38
2018-06-04T22:15:36.598Z,76.28
2018-06-04T22:17:38.115Z,76.38
2018-06-04T22:20:19.553Z,76.57
2018-06-04T22:22:21.541Z,76.76
2018-06-04T22:24:22.990Z,76.48
2018-06-04T22:26:24.453Z,77.44
2018-06-04T22:28:26.413Z,77.25
2018-06-04T22:31:07.803Z,77.73
2018-06-04T22:33:09.227Z,77.63
2018-06-04T22:35:11.096Z,78.11
2018-06-04T22:37:12.915Z,78.02
2018-06-04T22:40:05.463Z,78.02
2018-06-04T22:43:03.338Z,78.59
2018-06-04T22:45:53.287Z,78.79
2018-06-04T22:49:02.057Z,78.94
2018-06-04T22:51:56.694Z,79.33
2018-06-04T22:54:54.980Z,80.00
2018-06-04T22:57:49.456Z,79.90
